sensor_id;sensor_type;location;lat;lon;timestamp;temperature;humidity
8662;DHT22;29684;47.722;9.388;2022-08-07T00:02:30;17.80;99.90
8662;DHT22;29684;47.722;9.388;2022-08-07T00:05:14;17.80;99.90
8662;DHT22;29684;47.722;9.388;2022-08-07T00:07:58;17.80;99.90
8662;DHT22;29684;47.722;9.388;2022-08-07T00:10:42;17.70;99.90
8662;DHT22;29684;47.722;9.388;2022-08-07T00:13:27;17.70;99.90
8662;DHT22;29684;47.722;9.388;2022-08-07T00:16:12;17.70;99.90
8662;DHT22;29684;47.722;9.388;2022-08-07T00:18:57;17.70;99.90
8662;DHT22;29684;47.722;9.388;2022-08-07T00:21:41;17.70;99.90
8662;DHT22;29684;47.722;9.388;2022-08-07T00:24:25;17.80;99.90
8662;DHT22;29684;47.722;9.388;2022-08-07T00:27:10;17.90;99.90
8662;DHT22;29684;47.722;9.388;2022-08-07T00:29:53;18.00;99.90
8662;DHT22;29684;47.722;9.388;2022-08-07T00:32:37;17.90;99.90
8662;DHT22;29684;47.722;9.388;2022-08-07T00:35:21;17.90;99.90
8662;DHT22;29684;47.722;9.388;2022-08-07T00:38:06;17.90;99.90
8662;DHT22;29684;47.722;9.388;2022-08-07T00:40:50;17.90;99.90
8662;DHT22;29684;47.722;9.388;2022-08-07T00:43:34;17.80;99.90
8662;DHT22;29684;47.722;9.388;2022-08-07T00:46:18;17.70;99.90
8662;DHT22;29684;47.722;9.388;2022-08-07T00:49:03;17.80;99.90
8662;DHT22;29684;47.722;9.388;2022-08-07T00:51:47;17.80;99.90
8662;DHT22;29684;47.722;9.388;2022-08-07T00:54:31;17.90;99.90
8662;DHT22;29684;47.722;9.388;2022-08-07T00:57:16;17.90;99.90
8662;DHT22;29684;47.722;9.388;2022-08-07T01:00:05;17.90;99.90
8662;DHT22;29684;47.722;9.388;2022-08-07T01:02:50;17.80;99.90
8662;DHT22;29684;47.722;9.388;2022-08-07T01:05:35;17.90;99.90
8662;DHT22;29684;47.722;9.388;2022-08-07T01:08:20;18.00;99.90
8662;DHT22;29684;47.722;9.388;2022-08-07T01:11:04;18.00;99.90
8662;DHT22;29684;47.722;9.388;2022-08-07T01:13:49;18.10;99.90
8662;DHT22;29684;47.722;9.388;2022-08-07T01:16:34;18.00;99.90
8662;DHT22;29684;47.722;9.388;2022-08-07T01:19:21;18.00;99.90
8662;DHT22;29684;47.722;9.388;2022-08-07T01:22:05;18.00;99.90
8662;DHT22;29684;47.722;9.388;2022-08-07T01:24:50;18.00;99.90
8662;DHT22;29684;47.722;9.388;2022-08-07T01:27:35;17.90;99.90
8662;DHT22;29684;47.722;9.388;2022-08-07T01:30:20;17.90;99.90
8662;DHT22;29684;47.722;9.388;2022-08-07T01:33:04;17.90;99.90
8662;DHT22;29684;47.722;9.388;2022-08-07T01:35:49;17.90;99.90
8662;DHT22;29684;47.722;9.388;2022-08-07T01:38:33;17.90;99.90
8662;DHT22;29684;47.722;9.388;2022-08-07T01:41:18;17.80;99.90
8662;DHT22;29684;47.722;9.388;2022-08-07T01:44:05;17.70;99.90
8662;DHT22;29684;47.722;9.388;2022-08-07T01:46:50;17.70;99.90
8662;DHT22;29684;47.722;9.388;2022-08-07T01:49:36;17.70;99.90
8662;DHT22;29684;47.722;9.388;2022-08-07T01:52:22;17.70;99.90
8662;DHT22;29684;47.722;9.388;2022-08-07T01:55:08;17.60;99.90
8662;DHT22;29684;47.722;9.388;2022-08-07T01:57:56;17.60;99.90
8662;DHT22;29684;47.722;9.388;2022-08-07T02:00:43;17.60;99.90
8662;DHT22;29684;47.722;9.388;2022-08-07T02:03:31;17.60;99.90
8662;DHT22;29684;47.722;9.388;2022-08-07T02:06:18;17.60;99.90
8662;DHT22;29684;47.722;9.388;2022-08-07T02:09:05;17.50;99.90
8662;DHT22;29684;47.722;9.388;2022-08-07T02:11:51;17.60;99.90
8662;DHT22;29684;47.722;9.388;2022-08-07T02:14:37;17.60;99.90
8662;DHT22;29684;47.722;9.388;2022-08-07T02:17:22;17.60;99.90
8662;DHT22;29684;47.722;9.388;2022-08-07T02:20:09;17.60;99.90
8662;DHT22;29684;47.722;9.388;2022-08-07T02:22:58;17.50;99.90
8662;DHT22;29684;47.722;9.388;2022-08-07T02:25:44;17.40;99.90
8662;DHT22;29684;47.722;9.388;2022-08-07T02:28:30;17.50;99.90
8662;DHT22;29684;47.722;9.388;2022-08-07T02:31:16;17.40;99.90
8662;DHT22;29684;47.722;9.388;2022-08-07T02:34:03;17.40;99.90
8662;DHT22;29684;47.722;9.388;2022-08-07T02:36:48;17.40;99.90
8662;DHT22;29684;47.722;9.388;2022-08-07T02:39:34;17.40;99.90
8662;DHT22;29684;47.722;9.388;2022-08-07T02:42:19;17.40;99.90
8662;DHT22;29684;47.722;9.388;2022-08-07T02:45:06;17.40;99.90
8662;DHT22;29684;47.722;9.388;2022-08-07T02:47:51;17.40;99.90
8662;DHT22;29684;47.722;9.388;2022-08-07T02:50:39;17.30;99.90
8662;DHT22;29684;47.722;9.388;2022-08-07T02:53:29;17.30;99.90
8662;DHT22;29684;47.722;9.388;2022-08-07T02:56:17;17.30;99.90
8662;DHT22;29684;47.722;9.388;2022-08-07T02:59:05;17.30;99.90
8662;DHT22;29684;47.722;9.388;2022-08-07T03:01:51;17.30;99.90
8662;DHT22;29684;47.722;9.388;2022-08-07T03:04:37;17.30;99.90
8662;DHT22;29684;47.722;9.388;2022-08-07T03:07:22;17.30;99.90
8662;DHT22;29684;47.722;9.388;2022-08-07T03:10:08;17.30;99.90
8662;DHT22;29684;47.722;9.388;2022-08-07T03:12:54;17.20;99.90
8662;DHT22;29684;47.722;9.388;2022-08-07T03:15:39;17.20;99.90
8662;DHT22;29684;47.722;9.388;2022-08-07T03:18:23;17.20;99.90
8662;DHT22;29684;47.722;9.388;2022-08-07T03:21:08;17.20;99.90
8662;DHT22;29684;47.722;9.388;2022-08-07T03:23:57;17.10;99.90
8662;DHT22;29684;47.722;9.388;2022-08-07T03:26:44;17.20;99.90
8662;DHT22;29684;47.722;9.388;2022-08-07T03:29:36;17.20;99.90
8662;DHT22;29684;47.722;9.388;2022-08-07T03:32:29;17.20;99.90
8662;DHT22;29684;47.722;9.388;2022-08-07T03:35:23;17.20;99.90
8662;DHT22;29684;47.722;9.388;2022-08-07T03:38:09;17.10;99.90
8662;DHT22;29684;47.722;9.388;2022-08-07T03:40:54;17.10;99.90
8662;DHT22;29684;47.722;9.388;2022-08-07T03:43:40;17.00;99.90
8662;DHT22;29684;47.722;9.388;2022-08-07T03:46:25;17.10;99.90
8662;DHT22;29684;47.722;9.388;2022-08-07T03:49:10;17.10;99.90
8662;DHT22;29684;47.722;9.388;2022-08-07T03:51:56;17.00;99.90
8662;DHT22;29684;47.722;9.388;2022-08-07T03:54:41;17.00;99.90
8662;DHT22;29684;47.722;9.388;2022-08-07T03:57:26;17.00;99.90
8662;DHT22;29684;47.722;9.388;2022-08-07T04:00:13;17.00;99.90
8662;DHT22;29684;47.722;9.388;2022-08-07T04:02:58;17.10;99.90
8662;DHT22;29684;47.722;9.388;2022-08-07T04:05:43;16.90;99.90
8662;DHT22;29684;47.722;9.388;2022-08-07T04:08:27;16.90;99.90
8662;DHT22;29684;47.722;9.388;2022-08-07T04:11:12;17.00;99.90
8662;DHT22;29684;47.722;9.388;2022-08-07T04:13:57;17.00;99.90
8662;DHT22;29684;47.722;9.388;2022-08-07T04:16:42;17.00;99.90
8662;DHT22;29684;47.722;9.388;2022-08-07T04:19:27;17.00;99.90
8662;DHT22;29684;47.722;9.388;2022-08-07T04:22:11;17.00;99.90
8662;DHT22;29684;47.722;9.388;2022-08-07T04:24:57;17.10;99.90
8662;DHT22;29684;47.722;9.388;2022-08-07T04:27:43;17.10;99.90
8662;DHT22;29684;47.722;9.388;2022-08-07T04:30:27;17.10;99.90
8662;DHT22;29684;47.722;9.388;2022-08-07T04:33:11;17.10;99.90
8662;DHT22;29684;47.722;9.388;2022-08-07T04:35:56;17.10;99.90
8662;DHT22;29684;47.722;9.388;2022-08-07T04:38:41;17.20;99.90
8662;DHT22;29684;47.722;9.388;2022-08-07T04:41:25;17.20;99.90
8662;DHT22;29684;47.722;9.388;2022-08-07T04:44:10;17.30;99.90
8662;DHT22;29684;47.722;9.388;2022-08-07T04:47:04;17.40;99.90
8662;DHT22;29684;47.722;9.388;2022-08-07T04:50:35;17.40;99.90
8662;DHT22;29684;47.722;9.388;2022-08-07T04:56:52;17.60;99.90
8662;DHT22;29684;47.722;9.388;2022-08-07T05:06:04;17.60;99.90
8662;DHT22;29684;47.722;9.388;2022-08-07T05:12:02;17.80;99.90
8662;DHT22;29684;47.722;9.388;2022-08-07T05:14:51;17.80;99.90
8662;DHT22;29684;47.722;9.388;2022-08-07T05:17:36;17.70;99.90
8662;DHT22;29684;47.722;9.388;2022-08-07T05:20:24;17.80;99.90
8662;DHT22;29684;47.722;9.388;2022-08-07T05:23:19;17.80;99.90
8662;DHT22;29684;47.722;9.388;2022-08-07T05:26:04;17.70;99.90
8662;DHT22;29684;47.722;9.388;2022-08-07T05:28:55;17.80;99.90
8662;DHT22;29684;47.722;9.388;2022-08-07T05:31:43;17.90;99.90
8662;DHT22;29684;47.722;9.388;2022-08-07T05:34:28;18.00;99.90
8662;DHT22;29684;47.722;9.388;2022-08-07T05:37:14;18.00;99.90
8662;DHT22;29684;47.722;9.388;2022-08-07T05:39:59;18.10;99.90
8662;DHT22;29684;47.722;9.388;2022-08-07T05:42:45;18.10;99.90
8662;DHT22;29684;47.722;9.388;2022-08-07T05:45:29;18.10;99.90
8662;DHT22;29684;47.722;9.388;2022-08-07T05:48:14;18.30;99.90
8662;DHT22;29684;47.722;9.388;2022-08-07T05:51:00;18.50;99.90
8662;DHT22;29684;47.722;9.388;2022-08-07T05:53:45;18.60;99.90
8662;DHT22;29684;47.722;9.388;2022-08-07T05:56:30;18.70;99.90
8662;DHT22;29684;47.722;9.388;2022-08-07T05:59:18;18.70;99.90
8662;DHT22;29684;47.722;9.388;2022-08-07T06:02:06;18.80;99.90
8662;DHT22;29684;47.722;9.388;2022-08-07T06:04:54;19.00;99.90
8662;DHT22;29684;47.722;9.388;2022-08-07T06:07:40;19.10;99.90
8662;DHT22;29684;47.722;9.388;2022-08-07T06:10:26;19.10;99.90
8662;DHT22;29684;47.722;9.388;2022-08-07T06:13:11;19.00;99.90
8662;DHT22;29684;47.722;9.388;2022-08-07T06:15:56;19.00;99.90
8662;DHT22;29684;47.722;9.388;2022-08-07T06:18:42;18.90;99.90
8662;DHT22;29684;47.722;9.388;2022-08-07T06:21:27;19.00;99.90
8662;DHT22;29684;47.722;9.388;2022-08-07T06:24:12;18.90;99.90
8662;DHT22;29684;47.722;9.388;2022-08-07T06:26:57;19.10;99.90
8662;DHT22;29684;47.722;9.388;2022-08-07T06:29:41;19.20;99.90
8662;DHT22;29684;47.722;9.388;2022-08-07T06:32:25;19.20;99.90
8662;DHT22;29684;47.722;9.388;2022-08-07T06:35:10;19.20;99.90
8662;DHT22;29684;47.722;9.388;2022-08-07T06:37:54;19.30;99.90
8662;DHT22;29684;47.722;9.388;2022-08-07T06:40:46;19.20;99.90
8662;DHT22;29684;47.722;9.388;2022-08-07T06:43:33;19.30;99.90
8662;DHT22;29684;47.722;9.388;2022-08-07T06:46:19;19.20;99.90
8662;DHT22;29684;47.722;9.388;2022-08-07T06:49:04;19.30;99.90
8662;DHT22;29684;47.722;9.388;2022-08-07T06:51:49;19.40;99.90
8662;DHT22;29684;47.722;9.388;2022-08-07T06:54:36;19.50;99.90
8662;DHT22;29684;47.722;9.388;2022-08-07T06:57:23;19.70;99.90
8662;DHT22;29684;47.722;9.388;2022-08-07T07:00:09;19.60;99.90
8662;DHT22;29684;47.722;9.388;2022-08-07T07:02:55;19.80;99.90
8662;DHT22;29684;47.722;9.388;2022-08-07T07:05:40;19.80;99.90
8662;DHT22;29684;47.722;9.388;2022-08-07T07:08:26;20.00;99.90
8662;DHT22;29684;47.722;9.388;2022-08-07T07:11:10;20.20;99.90
8662;DHT22;29684;47.722;9.388;2022-08-07T07:13:55;20.20;99.90
8662;DHT22;29684;47.722;9.388;2022-08-07T07:16:41;20.10;99.90
8662;DHT22;29684;47.722;9.388;2022-08-07T07:19:29;20.00;99.90
8662;DHT22;29684;47.722;9.388;2022-08-07T07:22:16;20.00;99.90
8662;DHT22;29684;47.722;9.388;2022-08-07T07:25:04;20.10;99.90
8662;DHT22;29684;47.722;9.388;2022-08-07T07:27:55;20.40;99.90
8662;DHT22;29684;47.722;9.388;2022-08-07T07:30:46;20.60;99.90
8662;DHT22;29684;47.722;9.388;2022-08-07T07:33:32;20.60;99.90
8662;DHT22;29684;47.722;9.388;2022-08-07T07:36:19;20.70;99.90
8662;DHT22;29684;47.722;9.388;2022-08-07T07:39:04;20.70;99.90
8662;DHT22;29684;47.722;9.388;2022-08-07T07:41:50;21.00;99.90
8662;DHT22;29684;47.722;9.388;2022-08-07T07:44:38;21.10;99.90
8662;DHT22;29684;47.722;9.388;2022-08-07T07:47:24;21.30;99.90
8662;DHT22;29684;47.722;9.388;2022-08-07T07:50:11;21.50;99.90
8662;DHT22;29684;47.722;9.388;2022-08-07T07:52:57;21.60;99.90
8662;DHT22;29684;47.722;9.388;2022-08-07T07:55:41;21.70;99.90
8662;DHT22;29684;47.722;9.388;2022-08-07T07:58:29;22.00;99.90
8662;DHT22;29684;47.722;9.388;2022-08-07T08:01:14;22.20;99.90
8662;DHT22;29684;47.722;9.388;2022-08-07T08:04:02;22.10;99.90
8662;DHT22;29684;47.722;9.388;2022-08-07T08:06:47;22.10;99.90
8662;DHT22;29684;47.722;9.388;2022-08-07T08:09:33;22.00;99.90
8662;DHT22;29684;47.722;9.388;2022-08-07T08:12:18;22.30;99.90
8662;DHT22;29684;47.722;9.388;2022-08-07T08:15:03;22.00;99.90
8662;DHT22;29684;47.722;9.388;2022-08-07T08:17:48;22.40;99.90
8662;DHT22;29684;47.722;9.388;2022-08-07T08:20:33;22.50;99.90
8662;DHT22;29684;47.722;9.388;2022-08-07T08:23:18;22.60;99.90
8662;DHT22;29684;47.722;9.388;2022-08-07T08:26:22;22.50;99.90
8662;DHT22;29684;47.722;9.388;2022-08-07T08:29:26;22.40;99.90
8662;DHT22;29684;47.722;9.388;2022-08-07T08:32:16;22.30;99.90
8662;DHT22;29684;47.722;9.388;2022-08-07T08:35:02;22.20;99.90
8662;DHT22;29684;47.722;9.388;2022-08-07T08:37:47;21.80;99.90
8662;DHT22;29684;47.722;9.388;2022-08-07T08:40:39;21.90;99.90
8662;DHT22;29684;47.722;9.388;2022-08-07T08:43:34;21.90;99.90
8662;DHT22;29684;47.722;9.388;2022-08-07T08:46:32;22.00;99.90
8662;DHT22;29684;47.722;9.388;2022-08-07T08:49:27;22.00;99.90
8662;DHT22;29684;47.722;9.388;2022-08-07T08:52:21;22.30;99.90
8662;DHT22;29684;47.722;9.388;2022-08-07T08:55:26;22.60;99.90
8662;DHT22;29684;47.722;9.388;2022-08-07T08:58:30;22.60;99.90
8662;DHT22;29684;47.722;9.388;2022-08-07T09:01:25;22.90;99.90
8662;DHT22;29684;47.722;9.388;2022-08-07T09:04:26;23.40;99.90
8662;DHT22;29684;47.722;9.388;2022-08-07T09:10:46;23.00;99.90
8662;DHT22;29684;47.722;9.388;2022-08-07T09:13:39;22.90;99.90
8662;DHT22;29684;47.722;9.388;2022-08-07T09:23:25;22.90;99.90
8662;DHT22;29684;47.722;9.388;2022-08-07T09:26:26;23.10;99.90
8662;DHT22;29684;47.722;9.388;2022-08-07T09:29:32;23.10;99.90
8662;DHT22;29684;47.722;9.388;2022-08-07T09:32:36;22.70;99.90
8662;DHT22;29684;47.722;9.388;2022-08-07T09:41:29;23.90;99.90
8662;DHT22;29684;47.722;9.388;2022-08-07T09:47:28;23.90;99.90
8662;DHT22;29684;47.722;9.388;2022-08-07T09:53:39;24.40;99.90
8662;DHT22;29684;47.722;9.388;2022-08-07T09:56:46;24.40;99.90
8662;DHT22;29684;47.722;9.388;2022-08-07T10:03:06;24.60;99.90
8662;DHT22;29684;47.722;9.388;2022-08-07T10:09:38;24.30;99.90
8662;DHT22;29684;47.722;9.388;2022-08-07T10:13:00;24.10;99.90
8662;DHT22;29684;47.722;9.388;2022-08-07T10:25:19;23.70;99.90
8662;DHT22;29684;47.722;9.388;2022-08-07T10:38:10;23.70;99.90
8662;DHT22;29684;47.722;9.388;2022-08-07T10:44:17;23.60;99.90
8662;DHT22;29684;47.722;9.388;2022-08-07T10:50:19;23.60;99.90
8662;DHT22;29684;47.722;9.388;2022-08-07T10:53:42;23.30;99.90
8662;DHT22;29684;47.722;9.388;2022-08-07T11:03:13;23.30;99.90
8662;DHT22;29684;47.722;9.388;2022-08-07T11:06:07;23.40;99.90
8662;DHT22;29684;47.722;9.388;2022-08-07T11:09:16;23.60;99.90
8662;DHT22;29684;47.722;9.388;2022-08-07T11:12:10;24.00;99.90
8662;DHT22;29684;47.722;9.388;2022-08-07T11:14:59;24.30;99.90
8662;DHT22;29684;47.722;9.388;2022-08-07T11:17:48;24.60;99.90
8662;DHT22;29684;47.722;9.388;2022-08-07T11:20:52;24.80;99.90
8662;DHT22;29684;47.722;9.388;2022-08-07T11:26:48;24.40;99.90
8662;DHT22;29684;47.722;9.388;2022-08-07T11:30:25;24.20;99.90
8662;DHT22;29684;47.722;9.388;2022-08-07T11:33:07;24.30;99.90
8662;DHT22;29684;47.722;9.388;2022-08-07T11:39:28;23.90;99.90
8662;DHT22;29684;47.722;9.388;2022-08-07T11:42:09;24.10;99.90
8662;DHT22;29684;47.722;9.388;2022-08-07T11:54:37;24.20;99.90
8662;DHT22;29684;47.722;9.388;2022-08-07T11:57:41;24.10;99.90
8662;DHT22;29684;47.722;9.388;2022-08-07T12:00:47;24.20;99.90
8662;DHT22;29684;47.722;9.388;2022-08-07T12:06:55;24.30;99.90
8662;DHT22;29684;47.722;9.388;2022-08-07T12:09:45;24.20;99.90
8662;DHT22;29684;47.722;9.388;2022-08-07T12:12:37;24.20;99.90
8662;DHT22;29684;47.722;9.388;2022-08-07T12:15:26;24.40;99.90
8662;DHT22;29684;47.722;9.388;2022-08-07T12:18:18;24.70;99.90
8662;DHT22;29684;47.722;9.388;2022-08-07T12:24:15;24.70;99.90
8662;DHT22;29684;47.722;9.388;2022-08-07T12:27:14;24.80;99.90
8662;DHT22;29684;47.722;9.388;2022-08-07T12:30:03;24.80;99.90
8662;DHT22;29684;47.722;9.388;2022-08-07T12:32:57;25.10;99.90
8662;DHT22;29684;47.722;9.388;2022-08-07T12:35:49;25.20;99.90
8662;DHT22;29684;47.722;9.388;2022-08-07T12:38:34;25.50;99.90
8662;DHT22;29684;47.722;9.388;2022-08-07T12:41:20;25.50;99.90
8662;DHT22;29684;47.722;9.388;2022-08-07T12:44:09;25.50;99.90
8662;DHT22;29684;47.722;9.388;2022-08-07T12:50:15;25.30;99.90
8662;DHT22;29684;47.722;9.388;2022-08-07T12:53:54;25.40;99.90
8662;DHT22;29684;47.722;9.388;2022-08-07T12:56:25;25.40;99.90
8662;DHT22;29684;47.722;9.388;2022-08-07T12:59:18;25.80;99.90
8662;DHT22;29684;47.722;9.388;2022-08-07T13:02:49;26.20;99.90
8662;DHT22;29684;47.722;9.388;2022-08-07T13:05:57;26.20;99.90
8662;DHT22;29684;47.722;9.388;2022-08-07T13:12:21;26.30;99.90
8662;DHT22;29684;47.722;9.388;2022-08-07T13:21:13;25.70;99.90
8662;DHT22;29684;47.722;9.388;2022-08-07T13:24:32;25.70;99.90
8662;DHT22;29684;47.722;9.388;2022-08-07T13:27:30;25.70;99.90
8662;DHT22;29684;47.722;9.388;2022-08-07T13:30:16;26.00;99.90
8662;DHT22;29684;47.722;9.388;2022-08-07T13:33:06;25.90;99.90
8662;DHT22;29684;47.722;9.388;2022-08-07T13:36:00;25.90;99.90
8662;DHT22;29684;47.722;9.388;2022-08-07T13:39:30;25.90;99.90
8662;DHT22;29684;47.722;9.388;2022-08-07T13:42:11;25.60;99.90
8662;DHT22;29684;47.722;9.388;2022-08-07T13:44:57;25.70;99.90
8662;DHT22;29684;47.722;9.388;2022-08-07T13:47:44;26.40;99.90
8662;DHT22;29684;47.722;9.388;2022-08-07T13:50:31;26.30;99.90
8662;DHT22;29684;47.722;9.388;2022-08-07T13:53:27;26.30;99.90
8662;DHT22;29684;47.722;9.388;2022-08-07T13:56:16;26.20;99.90
8662;DHT22;29684;47.722;9.388;2022-08-07T13:59:02;25.70;99.90
8662;DHT22;29684;47.722;9.388;2022-08-07T14:01:54;25.70;99.90
8662;DHT22;29684;47.722;9.388;2022-08-07T14:04:55;25.70;99.90
8662;DHT22;29684;47.722;9.388;2022-08-07T14:07:43;26.00;99.90
8662;DHT22;29684;47.722;9.388;2022-08-07T14:10:35;26.30;99.90
8662;DHT22;29684;47.722;9.388;2022-08-07T14:13:27;26.80;99.90
8662;DHT22;29684;47.722;9.388;2022-08-07T14:16:15;27.00;99.90
8662;DHT22;29684;47.722;9.388;2022-08-07T14:19:02;27.00;99.90
8662;DHT22;29684;47.722;9.388;2022-08-07T14:21:50;26.60;99.90
8662;DHT22;29684;47.722;9.388;2022-08-07T14:24:41;26.10;99.90
8662;DHT22;29684;47.722;9.388;2022-08-07T14:27:35;25.70;99.90
8662;DHT22;29684;47.722;9.388;2022-08-07T14:30:21;25.50;99.90
8662;DHT22;29684;47.722;9.388;2022-08-07T14:33:07;25.30;99.90
8662;DHT22;29684;47.722;9.388;2022-08-07T14:35:56;24.90;99.90
8662;DHT22;29684;47.722;9.388;2022-08-07T14:38:42;24.70;99.90
8662;DHT22;29684;47.722;9.388;2022-08-07T14:41:30;24.60;99.90
8662;DHT22;29684;47.722;9.388;2022-08-07T14:44:17;24.60;99.90
8662;DHT22;29684;47.722;9.388;2022-08-07T14:47:03;25.00;99.90
8662;DHT22;29684;47.722;9.388;2022-08-07T14:49:49;25.40;99.90
8662;DHT22;29684;47.722;9.388;2022-08-07T14:52:36;25.60;99.90
8662;DHT22;29684;47.722;9.388;2022-08-07T14:55:29;25.30;99.90
8662;DHT22;29684;47.722;9.388;2022-08-07T14:58:16;25.10;99.90
8662;DHT22;29684;47.722;9.388;2022-08-07T15:01:03;24.80;99.90
8662;DHT22;29684;47.722;9.388;2022-08-07T15:03:48;24.80;99.90
8662;DHT22;29684;47.722;9.388;2022-08-07T15:06:35;24.70;99.90
8662;DHT22;29684;47.722;9.388;2022-08-07T15:09:20;24.50;99.90
8662;DHT22;29684;47.722;9.388;2022-08-07T15:12:21;24.50;99.90
8662;DHT22;29684;47.722;9.388;2022-08-07T15:15:10;24.40;99.90
8662;DHT22;29684;47.722;9.388;2022-08-07T15:18:01;24.20;99.90
8662;DHT22;29684;47.722;9.388;2022-08-07T15:20:48;24.10;99.90
8662;DHT22;29684;47.722;9.388;2022-08-07T15:23:36;24.00;99.90
8662;DHT22;29684;47.722;9.388;2022-08-07T15:26:31;24.00;99.90
8662;DHT22;29684;47.722;9.388;2022-08-07T15:29:17;23.90;99.90
8662;DHT22;29684;47.722;9.388;2022-08-07T15:32:04;23.80;99.90
8662;DHT22;29684;47.722;9.388;2022-08-07T15:34:51;23.90;99.90
8662;DHT22;29684;47.722;9.388;2022-08-07T15:37:38;24.00;99.90
8662;DHT22;29684;47.722;9.388;2022-08-07T15:40:28;24.10;99.90
8662;DHT22;29684;47.722;9.388;2022-08-07T15:43:25;24.20;99.90
8662;DHT22;29684;47.722;9.388;2022-08-07T15:46:23;24.30;99.90
8662;DHT22;29684;47.722;9.388;2022-08-07T15:49:12;24.30;99.90
8662;DHT22;29684;47.722;9.388;2022-08-07T15:51:57;24.10;99.90
8662;DHT22;29684;47.722;9.388;2022-08-07T15:54:43;24.10;99.90
8662;DHT22;29684;47.722;9.388;2022-08-07T15:57:32;24.10;99.90
8662;DHT22;29684;47.722;9.388;2022-08-07T16:00:20;24.20;99.90
8662;DHT22;29684;47.722;9.388;2022-08-07T16:03:18;24.10;99.90
8662;DHT22;29684;47.722;9.388;2022-08-07T16:06:04;24.10;99.90
8662;DHT22;29684;47.722;9.388;2022-08-07T16:08:50;24.10;99.90
8662;DHT22;29684;47.722;9.388;2022-08-07T16:15:06;24.00;99.90
8662;DHT22;29684;47.722;9.388;2022-08-07T16:21:41;23.80;99.90
8662;DHT22;29684;47.722;9.388;2022-08-07T16:24:56;23.60;99.90
8662;DHT22;29684;47.722;9.388;2022-08-07T16:34:05;23.30;99.90
8662;DHT22;29684;47.722;9.388;2022-08-07T16:52:22;23.20;99.90
8662;DHT22;29684;47.722;9.388;2022-08-07T16:55:20;23.10;99.90
8662;DHT22;29684;47.722;9.388;2022-08-07T17:04:12;23.00;99.90
8662;DHT22;29684;47.722;9.388;2022-08-07T17:16:11;22.90;99.90
8662;DHT22;29684;47.722;9.388;2022-08-07T17:21:45;22.80;99.90
8662;DHT22;29684;47.722;9.388;2022-08-07T17:24:52;22.90;99.90
8662;DHT22;29684;47.722;9.388;2022-08-07T17:27:57;23.00;99.90
8662;DHT22;29684;47.722;9.388;2022-08-07T17:30:59;23.00;99.90
8662;DHT22;29684;47.722;9.388;2022-08-07T17:33:50;23.10;99.90
8662;DHT22;29684;47.722;9.388;2022-08-07T17:36:42;23.10;99.90
8662;DHT22;29684;47.722;9.388;2022-08-07T17:39:37;23.10;99.90
8662;DHT22;29684;47.722;9.388;2022-08-07T17:45:25;23.00;99.90
8662;DHT22;29684;47.722;9.388;2022-08-07T17:48:16;23.00;99.90
8662;DHT22;29684;47.722;9.388;2022-08-07T17:51:08;23.10;99.90
8662;DHT22;29684;47.722;9.388;2022-08-07T17:59:58;23.20;99.90
8662;DHT22;29684;47.722;9.388;2022-08-07T18:02:59;23.30;99.90
8662;DHT22;29684;47.722;9.388;2022-08-07T18:06:05;23.30;99.90
8662;DHT22;29684;47.722;9.388;2022-08-07T18:08:53;23.30;99.90
8662;DHT22;29684;47.722;9.388;2022-08-07T18:11:54;23.30;99.90
8662;DHT22;29684;47.722;9.388;2022-08-07T18:14:50;23.10;99.90
8662;DHT22;29684;47.722;9.388;2022-08-07T18:20:42;22.80;99.90
8662;DHT22;29684;47.722;9.388;2022-08-07T18:23:59;23.00;99.90
8662;DHT22;29684;47.722;9.388;2022-08-07T18:30:12;24.10;99.90
8662;DHT22;29684;47.722;9.388;2022-08-07T18:33:24;24.00;99.90
8662;DHT22;29684;47.722;9.388;2022-08-07T18:43:10;23.20;99.90
8662;DHT22;29684;47.722;9.388;2022-08-07T18:45:53;22.90;99.90
8662;DHT22;29684;47.722;9.388;2022-08-07T18:48:43;22.40;99.90
8662;DHT22;29684;47.722;9.388;2022-08-07T18:51:51;22.20;99.90
8662;DHT22;29684;47.722;9.388;2022-08-07T18:58:17;21.70;99.90
8662;DHT22;29684;47.722;9.388;2022-08-07T19:03:59;21.30;99.90
8662;DHT22;29684;47.722;9.388;2022-08-07T19:06:48;21.20;99.90
8662;DHT22;29684;47.722;9.388;2022-08-07T19:10:00;21.20;99.90
8662;DHT22;29684;47.722;9.388;2022-08-07T19:13:07;21.00;99.90
8662;DHT22;29684;47.722;9.388;2022-08-07T19:19:27;20.90;99.90
8662;DHT22;29684;47.722;9.388;2022-08-07T19:25:13;20.70;99.90
8662;DHT22;29684;47.722;9.388;2022-08-07T19:28:02;20.60;99.90
8662;DHT22;29684;47.722;9.388;2022-08-07T19:30:49;20.50;99.90
8662;DHT22;29684;47.722;9.388;2022-08-07T19:33:40;20.50;99.90
8662;DHT22;29684;47.722;9.388;2022-08-07T19:36:26;20.40;99.90
8662;DHT22;29684;47.722;9.388;2022-08-07T19:39:13;20.30;99.90
8662;DHT22;29684;47.722;9.388;2022-08-07T19:42:00;20.20;99.90
8662;DHT22;29684;47.722;9.388;2022-08-07T19:44:52;20.30;99.90
8662;DHT22;29684;47.722;9.388;2022-08-07T19:47:39;20.30;99.90
8662;DHT22;29684;47.722;9.388;2022-08-07T19:50:25;20.30;99.90
8662;DHT22;29684;47.722;9.388;2022-08-07T19:53:14;20.30;99.90
8662;DHT22;29684;47.722;9.388;2022-08-07T19:56:03;20.30;99.90
8662;DHT22;29684;47.722;9.388;2022-08-07T19:58:51;20.20;99.90
8662;DHT22;29684;47.722;9.388;2022-08-07T20:01:35;20.20;99.90
8662;DHT22;29684;47.722;9.388;2022-08-07T20:04:31;20.10;99.90
8662;DHT22;29684;47.722;9.388;2022-08-07T20:07:24;20.10;99.90
8662;DHT22;29684;47.722;9.388;2022-08-07T20:10:11;20.20;99.90
8662;DHT22;29684;47.722;9.388;2022-08-07T20:12:57;20.20;99.90
8662;DHT22;29684;47.722;9.388;2022-08-07T20:15:43;20.30;99.90
8662;DHT22;29684;47.722;9.388;2022-08-07T20:18:29;20.20;99.90
8662;DHT22;29684;47.722;9.388;2022-08-07T20:21:15;20.20;99.90
8662;DHT22;29684;47.722;9.388;2022-08-07T20:24:03;20.30;99.90
8662;DHT22;29684;47.722;9.388;2022-08-07T20:26:57;20.30;99.90
8662;DHT22;29684;47.722;9.388;2022-08-07T20:29:47;20.30;99.90
8662;DHT22;29684;47.722;9.388;2022-08-07T20:32:35;20.30;99.90
8662;DHT22;29684;47.722;9.388;2022-08-07T20:35:20;20.40;99.90
8662;DHT22;29684;47.722;9.388;2022-08-07T20:38:06;20.40;99.90
8662;DHT22;29684;47.722;9.388;2022-08-07T20:40:56;20.40;99.90
8662;DHT22;29684;47.722;9.388;2022-08-07T20:43:44;20.40;99.90
8662;DHT22;29684;47.722;9.388;2022-08-07T20:46:29;20.50;99.90
8662;DHT22;29684;47.722;9.388;2022-08-07T20:49:16;20.50;99.90
8662;DHT22;29684;47.722;9.388;2022-08-07T20:52:04;20.50;99.90
8662;DHT22;29684;47.722;9.388;2022-08-07T20:54:52;20.40;99.90
8662;DHT22;29684;47.722;9.388;2022-08-07T20:57:41;20.40;99.90
8662;DHT22;29684;47.722;9.388;2022-08-07T21:00:42;20.30;99.90
8662;DHT22;29684;47.722;9.388;2022-08-07T21:03:29;20.20;99.90
8662;DHT22;29684;47.722;9.388;2022-08-07T21:06:17;20.00;99.90
8662;DHT22;29684;47.722;9.388;2022-08-07T21:09:07;19.90;99.90
8662;DHT22;29684;47.722;9.388;2022-08-07T21:11:56;19.70;99.90
8662;DHT22;29684;47.722;9.388;2022-08-07T21:14:43;19.60;99.90
8662;DHT22;29684;47.722;9.388;2022-08-07T21:17:31;19.50;99.90
8662;DHT22;29684;47.722;9.388;2022-08-07T21:20:17;19.40;99.90
8662;DHT22;29684;47.722;9.388;2022-08-07T21:23:33;19.20;99.90